sensor_id;sensor_type;location;lat;lon;timestamp;pressure;altitude;pressure_sealevel;temperature;humidity
21449;BME280;10885;52.830;13.788;2023-07-29T05:35:14;100364.56;;;17.55;100.00
21449;BME280;10885;52.830;13.788;2023-07-29T05:40:18;100366.41;;;17.59;100.00
21449;BME280;10885;52.830;13.788;2023-07-29T05:45:20;100357.16;;;17.70;100.00
21449;BME280;10885;52.830;13.788;2023-07-29T05:50:23;100359.31;;;17.85;100.00
21449;BME280;10885;52.830;13.788;2023-07-29T05:55:26;100355.38;;;18.02;99.49
21449;BME280;10885;52.830;13.788;2023-07-29T06:00:28;100357.13;;;18.81;95.15
21449;BME280;10885;52.830;13.788;2023-07-29T06:05:31;100355.66;;;18.54;95.14
21449;BME280;10885;52.830;13.788;2023-07-29T06:10:34;100353.19;;;18.59;96.07
21449;BME280;10885;52.830;13.788;2023-07-29T06:15:37;100344.69;;;18.67;95.64
21449;BME280;10885;52.830;13.788;2023-07-29T06:20:40;100329.59;;;18.89;95.44
21449;BME280;10885;52.830;13.788;2023-07-29T06:25:42;100330.34;;;19.29;94.49
21449;BME280;10885;52.830;13.788;2023-07-29T06:30:45;100327.56;;;19.70;92.89
21449;BME280;10885;52.830;13.788;2023-07-29T06:35:48;100331.72;;;20.15;89.86
21449;BME280;10885;52.830;13.788;2023-07-29T06:40:50;100314.06;;;20.55;88.46
21449;BME280;10885;52.830;13.788;2023-07-29T06:45:53;100320.66;;;20.97;85.58
21449;BME280;10885;52.830;13.788;2023-07-29T06:50:55;100321.13;;;21.43;84.11
21449;BME280;10885;52.830;13.788;2023-07-29T06:56:02;100312.03;;;22.02;80.94
21449;BME280;10885;52.830;13.788;2023-07-29T07:01:05;100316.72;;;22.71;79.47
21449;BME280;10885;52.830;13.788;2023-07-29T07:06:08;100319.53;;;23.40;75.00
21449;BME280;10885;52.830;13.788;2023-07-29T07:11:10;100319.50;;;24.00;72.10
21449;BME280;10885;52.830;13.788;2023-07-29T07:16:13;100309.78;;;24.41;72.37
21449;BME280;10885;52.830;13.788;2023-07-29T07:21:15;100316.59;;;24.91;69.71
21449;BME280;10885;52.830;13.788;2023-07-29T07:26:18;100316.25;;;25.42;66.68
21449;BME280;10885;52.830;13.788;2023-07-29T07:31:21;100309.25;;;26.37;63.06
21449;BME280;10885;52.830;13.788;2023-07-29T07:36:24;100307.91;;;25.97;65.96
21449;BME280;10885;52.830;13.788;2023-07-29T07:41:26;100296.09;;;26.37;63.70
21449;BME280;10885;52.830;13.788;2023-07-29T07:46:29;100292.97;;;26.77;63.24
21449;BME280;10885;52.830;13.788;2023-07-29T07:51:32;100288.34;;;26.94;62.10
21449;BME280;10885;52.830;13.788;2023-07-29T07:56:34;100289.50;;;27.35;59.83
21449;BME280;10885;52.830;13.788;2023-07-29T08:01:38;100289.16;;;26.30;62.33
21449;BME280;10885;52.830;13.788;2023-07-29T08:06:41;100297.09;;;25.32;65.73
21449;BME280;10885;52.830;13.788;2023-07-29T08:11:44;100282.66;;;24.62;67.02
21449;BME280;10885;52.830;13.788;2023-07-29T08:16:46;100289.22;;;25.32;66.12
21449;BME280;10885;52.830;13.788;2023-07-29T08:21:49;100285.63;;;25.49;64.43
21449;BME280;10885;52.830;13.788;2023-07-29T08:26:52;100285.00;;;25.10;65.67
21449;BME280;10885;52.830;13.788;2023-07-29T08:31:54;100281.75;;;24.69;67.31
21449;BME280;10885;52.830;13.788;2023-07-29T08:36:57;100272.53;;;25.43;65.35
21449;BME280;10885;52.830;13.788;2023-07-29T08:42:04;100275.41;;;26.81;62.71
21449;BME280;10885;52.830;13.788;2023-07-29T08:47:09;100283.38;;;27.85;57.26
21449;BME280;10885;52.830;13.788;2023-07-29T08:52:13;100281.03;;;28.61;55.05
21449;BME280;10885;52.830;13.788;2023-07-29T08:57:17;100282.28;;;27.98;56.51
21449;BME280;10885;52.830;13.788;2023-07-29T09:02:19;100276.81;;;26.38;60.53
21449;BME280;10885;52.830;13.788;2023-07-29T09:07:22;100270.72;;;25.49;63.67
21449;BME280;10885;52.830;13.788;2023-07-29T09:12:25;100272.06;;;24.85;65.20
21449;BME280;10885;52.830;13.788;2023-07-29T09:17:34;100266.94;;;24.60;66.47
21449;BME280;10885;52.830;13.788;2023-07-29T09:22:36;100268.63;;;24.75;66.09
21449;BME280;10885;52.830;13.788;2023-07-29T09:27:39;100256.41;;;24.71;65.90
21449;BME280;10885;52.830;13.788;2023-07-29T09:32:42;100249.81;;;25.42;63.59
21449;BME280;10885;52.830;13.788;2023-07-29T09:37:44;100250.31;;;25.79;62.10
21449;BME280;10885;52.830;13.788;2023-07-29T09:42:49;100243.13;;;26.69;59.88
21449;BME280;10885;52.830;13.788;2023-07-29T09:47:53;100244.59;;;26.90;58.45
21449;BME280;10885;52.830;13.788;2023-07-29T09:52:56;100229.91;;;26.07;60.89
21449;BME280;10885;52.830;13.788;2023-07-29T09:58:02;100228.34;;;25.88;61.58
21449;BME280;10885;52.830;13.788;2023-07-29T10:03:09;100231.19;;;25.66;62.36
21449;BME280;10885;52.830;13.788;2023-07-29T10:08:12;100219.13;;;26.94;58.61
21449;BME280;10885;52.830;13.788;2023-07-29T10:13:16;100219.25;;;27.87;56.13
21449;BME280;10885;52.830;13.788;2023-07-29T10:18:18;100208.91;;;28.23;54.33
21449;BME280;10885;52.830;13.788;2023-07-29T10:23:21;100205.66;;;28.51;51.86
21449;BME280;10885;52.830;13.788;2023-07-29T10:28:26;100197.66;;;27.68;54.18
21449;BME280;10885;52.830;13.788;2023-07-29T10:33:31;100184.50;;;27.20;56.17
21449;BME280;10885;52.830;13.788;2023-07-29T10:38:34;100184.31;;;26.76;57.16
21449;BME280;10885;52.830;13.788;2023-07-29T10:43:37;100177.47;;;26.66;57.70
21449;BME280;10885;52.830;13.788;2023-07-29T10:48:41;100173.56;;;27.43;55.47
21449;BME280;10885;52.830;13.788;2023-07-29T10:53:44;100173.16;;;27.15;54.52
21449;BME280;10885;52.830;13.788;2023-07-29T10:58:47;100166.31;;;26.49;55.79
21449;BME280;10885;52.830;13.788;2023-07-29T11:04:29;100159.34;;;25.76;58.32
21449;BME280;10885;52.830;13.788;2023-07-29T11:15:02;100149.59;;;25.01;61.21
21449;BME280;10885;52.830;13.788;2023-07-29T11:20:06;100141.13;;;24.70;62.12
21449;BME280;10885;52.830;13.788;2023-07-29T11:25:13;100157.06;;;24.30;63.06
21449;BME280;10885;52.830;13.788;2023-07-29T11:30:16;100160.69;;;24.01;65.58
21449;BME280;10885;52.830;13.788;2023-07-29T11:35:19;100136.38;;;23.57;67.62
21449;BME280;10885;52.830;13.788;2023-07-29T11:40:23;100125.16;;;23.26;69.35
21449;BME280;10885;52.830;13.788;2023-07-29T11:45:26;100145.19;;;22.96;71.74
21449;BME280;10885;52.830;13.788;2023-07-29T11:50:45;100141.69;;;22.54;74.37
21449;BME280;10885;52.830;13.788;2023-07-29T11:55:52;100166.75;;;22.08;77.49
21449;BME280;10885;52.830;13.788;2023-07-29T12:00:57;100241.00;;;21.25;82.48
21449;BME280;10885;52.830;13.788;2023-07-29T12:06:00;100160.09;;;20.21;84.56
21449;BME280;10885;52.830;13.788;2023-07-29T12:11:03;100147.53;;;19.86;86.43
21449;BME280;10885;52.830;13.788;2023-07-29T12:16:06;100154.97;;;19.63;87.62
21449;BME280;10885;52.830;13.788;2023-07-29T12:21:09;100178.31;;;19.57;88.85
21449;BME280;10885;52.830;13.788;2023-07-29T12:26:11;100166.09;;;19.52;90.20
21449;BME280;10885;52.830;13.788;2023-07-29T12:31:14;100175.59;;;19.50;90.12
21449;BME280;10885;52.830;13.788;2023-07-29T12:36:16;100171.09;;;19.36;88.89
21449;BME280;10885;52.830;13.788;2023-07-29T12:41:19;100172.69;;;19.28;90.25
21449;BME280;10885;52.830;13.788;2023-07-29T12:46:21;100175.31;;;19.31;90.78
21449;BME280;10885;52.830;13.788;2023-07-29T12:51:24;100171.88;;;19.34;90.06
21449;BME280;10885;52.830;13.788;2023-07-29T12:56:27;100168.50;;;19.38;89.41
21449;BME280;10885;52.830;13.788;2023-07-29T13:01:29;100170.50;;;19.56;90.71
21449;BME280;10885;52.830;13.788;2023-07-29T13:06:32;100167.19;;;19.69;88.62
21449;BME280;10885;52.830;13.788;2023-07-29T13:11:34;100168.19;;;19.74;88.79
21449;BME280;10885;52.830;13.788;2023-07-29T13:16:37;100172.69;;;19.88;89.78
21449;BME280;10885;52.830;13.788;2023-07-29T13:21:40;100168.63;;;20.11;88.31
21449;BME280;10885;52.830;13.788;2023-07-29T13:26:43;100171.03;;;20.68;86.47
21449;BME280;10885;52.830;13.788;2023-07-29T13:31:45;100168.34;;;21.72;84.55
21449;BME280;10885;52.830;13.788;2023-07-29T13:36:48;100174.75;;;22.57;80.44
21449;BME280;10885;52.830;13.788;2023-07-29T13:41:50;100180.94;;;23.16;80.08
21449;BME280;10885;52.830;13.788;2023-07-29T13:46:53;100173.59;;;24.38;76.97
21449;BME280;10885;52.830;13.788;2023-07-29T13:51:55;100170.13;;;25.52;70.65
21449;BME280;10885;52.830;13.788;2023-07-29T13:56:59;100156.94;;;25.58;70.79
21449;BME280;10885;52.830;13.788;2023-07-29T14:02:02;100166.84;;;25.28;71.43
21449;BME280;10885;52.830;13.788;2023-07-29T14:07:05;100147.16;;;24.75;70.87
21449;BME280;10885;52.830;13.788;2023-07-29T14:12:08;100164.03;;;24.32;72.82
21449;BME280;10885;52.830;13.788;2023-07-29T14:17:15;100159.00;;;23.89;74.41
21449;BME280;10885;52.830;13.788;2023-07-29T14:22:17;100159.91;;;23.84;75.60
21449;BME280;10885;52.830;13.788;2023-07-29T14:27:20;100139.47;;;24.49;72.59
21449;BME280;10885;52.830;13.788;2023-07-29T14:32:22;100142.78;;;24.77;72.21
21449;BME280;10885;52.830;13.788;2023-07-29T14:37:25;100128.50;;;25.13;70.60
21449;BME280;10885;52.830;13.788;2023-07-29T14:42:28;100111.63;;;25.40;68.30
21449;BME280;10885;52.830;13.788;2023-07-29T14:47:31;100111.69;;;25.34;69.28
21449;BME280;10885;52.830;13.788;2023-07-29T14:52:37;100117.06;;;25.20;68.88
21449;BME280;10885;52.830;13.788;2023-07-29T14:57:39;100125.19;;;24.94;69.23
21449;BME280;10885;52.830;13.788;2023-07-29T15:02:43;100123.44;;;24.93;71.61
21449;BME280;10885;52.830;13.788;2023-07-29T15:07:46;100133.09;;;24.90;69.40
21449;BME280;10885;52.830;13.788;2023-07-29T15:12:49;100138.22;;;25.04;70.28
21449;BME280;10885;52.830;13.788;2023-07-29T15:17:51;100152.03;;;25.23;68.22
21449;BME280;10885;52.830;13.788;2023-07-29T15:22:54;100141.16;;;25.59;65.93
21449;BME280;10885;52.830;13.788;2023-07-29T15:27:57;100134.22;;;25.57;64.67
21449;BME280;10885;52.830;13.788;2023-07-29T15:33:00;100141.78;;;24.95;66.26
21449;BME280;10885;52.830;13.788;2023-07-29T15:38:04;100158.78;;;24.34;68.23
21449;BME280;10885;52.830;13.788;2023-07-29T15:43:07;100142.38;;;23.95;69.83
21449;BME280;10885;52.830;13.788;2023-07-29T15:48:09;100145.97;;;23.61;70.54
21449;BME280;10885;52.830;13.788;2023-07-29T15:53:12;100156.50;;;23.37;71.34
21449;BME280;10885;52.830;13.788;2023-07-29T15:58:14;100167.00;;;23.11;72.52
21449;BME280;10885;52.830;13.788;2023-07-29T16:03:17;100166.09;;;22.93;74.01
21449;BME280;10885;52.830;13.788;2023-07-29T16:08:20;100158.25;;;22.76;74.37
21449;BME280;10885;52.830;13.788;2023-07-29T16:13:23;100163.44;;;22.56;75.46
21449;BME280;10885;52.830;13.788;2023-07-29T16:18:25;100152.06;;;22.27;77.15
21449;BME280;10885;52.830;13.788;2023-07-29T16:23:29;100160.66;;;22.07;79.50
21449;BME280;10885;52.830;13.788;2023-07-29T16:28:32;100154.50;;;21.90;81.10
21449;BME280;10885;52.830;13.788;2023-07-29T16:33:35;100173.59;;;21.79;82.20
21449;BME280;10885;52.830;13.788;2023-07-29T16:38:38;100174.59;;;22.09;82.27
21449;BME280;10885;52.830;13.788;2023-07-29T16:43:40;100176.56;;;22.84;79.61
21449;BME280;10885;52.830;13.788;2023-07-29T16:48:43;100182.56;;;23.83;75.96
21449;BME280;10885;52.830;13.788;2023-07-29T16:53:45;100177.03;;;24.54;69.41
21449;BME280;10885;52.830;13.788;2023-07-29T16:58:49;100169.19;;;24.43;69.30
21449;BME280;10885;52.830;13.788;2023-07-29T17:03:52;100158.03;;;24.13;69.20
21449;BME280;10885;52.830;13.788;2023-07-29T17:08:54;100176.47;;;23.81;70.27
21449;BME280;10885;52.830;13.788;2023-07-29T17:13:57;100178.28;;;23.45;72.18
21449;BME280;10885;52.830;13.788;2023-07-29T17:18:59;100175.69;;;23.10;72.89
21449;BME280;10885;52.830;13.788;2023-07-29T17:24:04;100172.16;;;22.81;74.03
21449;BME280;10885;52.830;13.788;2023-07-29T17:29:07;100177.38;;;22.63;74.79
21449;BME280;10885;52.830;13.788;2023-07-29T17:34:10;100170.41;;;22.47;75.41
21449;BME280;10885;52.830;13.788;2023-07-29T17:39:12;100170.38;;;22.48;76.43
21449;BME280;10885;52.830;13.788;2023-07-29T17:44:15;100176.50;;;22.56;75.45
21449;BME280;10885;52.830;13.788;2023-07-29T17:49:18;100181.72;;;22.64;73.92
21449;BME280;10885;52.830;13.788;2023-07-29T17:54:20;100179.13;;;22.61;73.90
21449;BME280;10885;52.830;13.788;2023-07-29T17:59:23;100176.47;;;22.47;75.33
21449;BME280;10885;52.830;13.788;2023-07-29T18:04:25;100179.88;;;22.23;75.89
21449;BME280;10885;52.830;13.788;2023-07-29T18:09:28;100172.84;;;22.05;76.83
21449;BME280;10885;52.830;13.788;2023-07-29T18:14:32;100171.03;;;21.92;77.77
21449;BME280;10885;52.830;13.788;2023-07-29T18:19:34;100168.34;;;21.73;78.11
21449;BME280;10885;52.830;13.788;2023-07-29T18:24:43;100176.97;;;21.57;79.19
21449;BME280;10885;52.830;13.788;2023-07-29T18:29:45;100185.44;;;21.33;80.93
21449;BME280;10885;52.830;13.788;2023-07-29T18:34:48;100193.94;;;21.09;82.60
21449;BME280;10885;52.830;13.788;2023-07-29T18:39:50;100203.25;;;20.77;84.31
21449;BME280;10885;52.830;13.788;2023-07-29T18:44:53;100204.72;;;20.58;85.64
21449;BME280;10885;52.830;13.788;2023-07-29T18:49:56;100216.69;;;20.39;86.79
21449;BME280;10885;52.830;13.788;2023-07-29T18:54:59;100232.97;;;20.21;87.60
21449;BME280;10885;52.830;13.788;2023-07-29T19:00:02;100231.00;;;20.05;88.40
21449;BME280;10885;52.830;13.788;2023-07-29T19:05:06;100231.50;;;19.78;89.28
21449;BME280;10885;52.830;13.788;2023-07-29T19:10:11;100250.19;;;19.54;90.80
21449;BME280;10885;52.830;13.788;2023-07-29T19:15:14;100260.28;;;19.35;92.48
21449;BME280;10885;52.830;13.788;2023-07-29T19:20:17;100261.75;;;19.19;92.91
21449;BME280;10885;52.830;13.788;2023-07-29T19:25:19;100274.47;;;19.04;93.72
21449;BME280;10885;52.830;13.788;2023-07-29T19:30:22;100281.34;;;19.00;94.27
21449;BME280;10885;52.830;13.788;2023-07-29T19:35:25;100283.88;;;18.97;92.94
21449;BME280;10885;52.830;13.788;2023-07-29T19:40:32;100284.72;;;18.96;92.35
21449;BME280;10885;52.830;13.788;2023-07-29T19:45:36;100297.50;;;18.85;92.91
21449;BME280;10885;52.830;13.788;2023-07-29T19:50:38;100286.91;;;18.76;93.50
21449;BME280;10885;52.830;13.788;2023-07-29T19:55:41;100298.00;;;18.69;93.54
21449;BME280;10885;52.830;13.788;2023-07-29T20:00:48;100303.03;;;18.61;93.53
21449;BME280;10885;52.830;13.788;2023-07-29T20:05:50;100296.84;;;18.53;94.80
21449;BME280;10885;52.830;13.788;2023-07-29T20:10:53;100300.09;;;18.43;94.93
21449;BME280;10885;52.830;13.788;2023-07-29T20:15:56;100302.47;;;18.34;95.50
21449;BME280;10885;52.830;13.788;2023-07-29T20:20:58;100298.94;;;18.28;95.29
21449;BME280;10885;52.830;13.788;2023-07-29T20:26:01;100306.41;;;18.16;96.00
21449;BME280;10885;52.830;13.788;2023-07-29T20:31:03;100309.69;;;18.07;96.34
21449;BME280;10885;52.830;13.788;2023-07-29T20:36:06;100300.81;;;17.98;96.64
21449;BME280;10885;52.830;13.788;2023-07-29T20:41:08;100303.13;;;17.85;97.63
21449;BME280;10885;52.830;13.788;2023-07-29T20:46:22;100293.50;;;17.81;97.25
21449;BME280;10885;52.830;13.788;2023-07-29T20:51:24;100306.38;;;17.78;98.55
21449;BME280;10885;52.830;13.788;2023-07-29T20:56:27;100306.31;;;17.75;98.55
21449;BME280;10885;52.830;13.788;2023-07-29T21:01:30;100311.38;;;17.70;98.63
